CheckWX is a tool to help pilots better visualize weather data.  It is not intended as a substitute for an official pre-flight weather briefing.

18:30:20 UTC

KCDJ METAR
Chillicothe Agri-Science Center Airport
Chillicothe, Missouri, USA
Current

38 mins ago

KCDJ 221752Z AUTO 10007KT 03/M04 A3026 RMK AO1 SLP260 T00331044 10033 21039 58023
Observed
Feb-22 @ 17:52 UTC
Wind
  • 100° at 7 KTS
Visibility
Temperature
C / 37°F
Dewpoint
-4°C / 25°F
Humidity
60%
Altimeter
30.26" Hg
Pressure
1026 hPa
Previous

2 hours ago

KCDJ 221652Z AUTO 10008KT 060V120 02/M04 A3029 RMK AO1 SLP269 T00221044
Observed
Feb-22 @ 16:52 UTC
Wind
  • 100° at 8 KTS
Visibility
Temperature
C / 36°F
Dewpoint
-4°C / 25°F
Humidity
65%
Altimeter
30.29" Hg
Pressure
1026.9 hPa
Previous

3 hours ago

KCDJ 221552Z AUTO 10007KT 00/M05 A3032 RMK AO1 SLP282 T00001050
Observed
Feb-22 @ 15:52 UTC
Wind
  • 100° at 7 KTS
Visibility
Temperature
C / 32°F
Dewpoint
-5°C / 23°F
Humidity
69%
Altimeter
30.32" Hg
Pressure
1028.2 hPa